createdAt,value
2022-10-04T00:01:12.650Z,101748.88
2022-10-04T00:03:53.644Z,101756.34
2022-10-04T00:06:23.604Z,101762.72
2022-10-04T00:08:58.741Z,101758.50
2022-10-04T00:11:30.384Z,101756.75
2022-10-04T00:14:00.262Z,101756.25
2022-10-04T00:16:33.429Z,101761.78
2022-10-04T00:19:21.727Z,101750.91
2022-10-04T00:22:13.054Z,101751.91
2022-10-04T00:25:17.453Z,101741.97
2022-10-04T00:28:24.470Z,101744.97
2022-10-04T00:31:15.748Z,101750.91
2022-10-04T00:33:51.991Z,101751.72
2022-10-04T00:36:25.273Z,101752.78
2022-10-04T00:39:07.808Z,101753.88
2022-10-04T00:41:58.826Z,101749.69
2022-10-04T00:44:55.273Z,101741.69
2022-10-04T00:47:44.622Z,101747.72
2022-10-04T00:50:18.365Z,101752.66
2022-10-04T00:52:50.439Z,101742.59
2022-10-04T00:55:39.461Z,101741.38
2022-10-04T00:58:23.420Z,101742.19
2022-10-04T01:00:52.814Z,101734.19
2022-10-04T01:03:32.996Z,101733.00
2022-10-04T01:06:01.236Z,101733.00
2022-10-04T01:08:35.814Z,101727.66
2022-10-04T01:11:19.664Z,101732.66
2022-10-04T01:13:58.710Z,101724.66
2022-10-04T01:16:27.972Z,101721.19
2022-10-04T01:18:56.255Z,101716.66
2022-10-04T01:21:27.336Z,101711.66
2022-10-04T01:23:57.508Z,101705.88
2022-10-04T01:26:32.433Z,101708.03
2022-10-04T01:29:21.346Z,101703.22
2022-10-04T01:31:50.701Z,101690.59
2022-10-04T01:34:22.963Z,101695.84
2022-10-04T01:36:52.794Z,101698.63
2022-10-04T01:39:22.196Z,101696.28
2022-10-04T01:42:05.251Z,101697.69
2022-10-04T01:44:46.200Z,101696.47
2022-10-04T01:47:18.957Z,101685.50
2022-10-04T01:49:46.903Z,101688.09
2022-10-04T01:52:18.367Z,101678.31
2022-10-04T01:54:49.209Z,101680.69
2022-10-04T01:57:19.559Z,101678.03
2022-10-04T01:59:58.144Z,101680.22
2022-10-04T02:02:35.631Z,101677.13
2022-10-04T02:05:06.482Z,101683.47
2022-10-04T02:07:34.274Z,101669.81
2022-10-04T02:10:04.751Z,101669.50
2022-10-04T02:12:34.092Z,101654.44
2022-10-04T02:15:03.353Z,101657.16
2022-10-04T02:17:33.556Z,101654.78
2022-10-04T02:20:01.456Z,101650.59
2022-10-04T02:22:28.937Z,101640.84
2022-10-04T02:24:56.910Z,101644.25
2022-10-04T02:27:31.980Z,101635.03
2022-10-04T02:30:04.495Z,101632.66
2022-10-04T02:32:51.388Z,101637.03
2022-10-04T02:35:19.876Z,101631.09
2022-10-04T02:37:50.091Z,101628.53
2022-10-04T02:40:18.275Z,101631.19
2022-10-04T02:43:00.393Z,101631.13
2022-10-04T02:45:41.145Z,101630.88
2022-10-04T02:48:21.793Z,101628.28
2022-10-04T02:50:52.090Z,101630.44
2022-10-04T02:53:26.556Z,101626.81
2022-10-04T02:55:57.656Z,101627.41
2022-10-04T02:58:26.049Z,101618.78
2022-10-04T03:00:59.700Z,101623.34
2022-10-04T03:03:39.413Z,101619.53
2022-10-04T03:06:10.661Z,101624.97
2022-10-04T03:08:37.911Z,101620.97
2022-10-04T03:11:05.483Z,101619.47
2022-10-04T03:13:33.113Z,101623.25
2022-10-04T03:16:00.983Z,101620.16
2022-10-04T03:18:29.783Z,101615.16
2022-10-04T03:20:57.501Z,101611.94
2022-10-04T03:23:24.858Z,101607.03
2022-10-04T03:25:53.202Z,101604.38
2022-10-04T03:28:20.728Z,101599.34
2022-10-04T03:30:51.310Z,101594.88
2022-10-04T03:33:23.147Z,101599.91
2022-10-04T03:35:53.200Z,101590.34
2022-10-04T03:38:21.680Z,101583.31
2022-10-04T03:40:56.262Z,101581.16
2022-10-04T03:43:31.698Z,101577.34
2022-10-04T03:46:00.976Z,101577.47
2022-10-04T03:48:35.405Z,101570.19
2022-10-04T03:51:05.437Z,101579.91
2022-10-04T03:53:43.028Z,101580.00
2022-10-04T03:56:19.891Z,101577.94
2022-10-04T03:58:49.347Z,101579.28
2022-10-04T04:01:34.997Z,101571.94
2022-10-04T04:04:23.512Z,101574.81
2022-10-04T04:07:03.384Z,101574.69
2022-10-04T04:09:45.429Z,101565.03
2022-10-04T04:12:27.938Z,101584.00
2022-10-04T04:14:55.175Z,101585.81
2022-10-04T04:17:43.089Z,101585.28
2022-10-04T04:20:20.339Z,101592.38
2022-10-04T04:22:56.590Z,101598.06
2022-10-04T04:25:24.991Z,101602.72
2022-10-04T04:27:56.599Z,101594.31
2022-10-04T04:30:24.083Z,101605.78
2022-10-04T04:32:52.660Z,101607.94
2022-10-04T04:35:26.266Z,101615.94
2022-10-04T04:38:15.254Z,101614.59
2022-10-04T04:40:43.034Z,101602.72
2022-10-04T04:43:15.011Z,101601.81
2022-10-04T04:45:42.616Z,101608.56
2022-10-04T04:48:13.796Z,101599.66
2022-10-04T04:50:41.401Z,101614.09
2022-10-04T04:53:09.584Z,101604.56
2022-10-04T04:56:02.916Z,101610.09
2022-10-04T04:58:35.433Z,101598.22
2022-10-04T05:01:20.062Z,101608.97
2022-10-04T05:04:08.443Z,101606.34
2022-10-04T05:06:37.626Z,101601.81
2022-10-04T05:09:05.945Z,101607.66
2022-10-04T05:11:37.218Z,101609.38
2022-10-04T05:14:12.144Z,101605.91
2022-10-04T05:16:57.610Z,101608.88
2022-10-04T05:19:31.224Z,101623.53
2022-10-04T05:22:01.155Z,101607.88
2022-10-04T05:24:33.653Z,101611.03
2022-10-04T05:27:06.196Z,101616.38
2022-10-04T05:29:38.691Z,101617.88
2022-10-04T05:32:33.944Z,101605.44
2022-10-04T05:35:01.743Z,101601.53
2022-10-04T05:37:50.976Z,101590.84
2022-10-04T05:40:47.535Z,101601.41
2022-10-04T05:43:40.879Z,101596.94
2022-10-04T05:46:38.773Z,101602.75
2022-10-04T05:49:18.882Z,101601.50
2022-10-04T05:52:02.311Z,101605.09
2022-10-04T05:54:33.317Z,101606.94
2022-10-04T05:57:15.958Z,101597.59
2022-10-04T05:59:46.471Z,101592.38
2022-10-04T06:02:38.140Z,101598.00
2022-10-04T06:05:17.944Z,101592.28
2022-10-04T06:07:50.893Z,101595.56
2022-10-04T06:10:37.132Z,101595.88
2022-10-04T06:13:15.662Z,101594.88
2022-10-04T06:15:52.044Z,101611.31
2022-10-04T06:18:40.012Z,101598.84
2022-10-04T06:21:18.665Z,101589.75
2022-10-04T06:23:59.522Z,101585.94
2022-10-04T06:26:33.359Z,101599.66
2022-10-04T06:29:04.105Z,101616.22
2022-10-04T06:31:45.282Z,101613.81
2022-10-04T06:34:26.010Z,101607.50
2022-10-04T06:37:17.590Z,101619.56
2022-10-04T06:40:12.415Z,101615.69
2022-10-04T06:43:15.177Z,101628.28
2022-10-04T06:45:58.821Z,101626.47
2022-10-04T06:48:26.068Z,101624.56
2022-10-04T06:51:05.525Z,101624.13
2022-10-04T06:53:55.004Z,101615.22
2022-10-04T06:56:31.440Z,101618.69
2022-10-04T06:59:14.455Z,101613.28
2022-10-04T07:01:54.517Z,101613.47
2022-10-04T07:04:27.793Z,101613.16
2022-10-04T07:07:26.189Z,101610.91
2022-10-04T07:10:00.309Z,101611.53
2022-10-04T07:12:27.843Z,101614.72
2022-10-04T07:15:00.233Z,101607.94
2022-10-04T07:17:33.600Z,101617.28
2022-10-04T07:20:01.429Z,101625.16
2022-10-04T07:22:34.618Z,101625.16
2022-10-04T07:25:08.329Z,101621.59
2022-10-04T07:28:23.290Z,101621.28
2022-10-04T07:31:04.048Z,101630.63
2022-10-04T07:33:43.177Z,101621.09
2022-10-04T07:36:13.463Z,101621.97
2022-10-04T07:39:01.851Z,101634.06
2022-10-04T07:41:35.282Z,101627.53
2022-10-04T07:44:39.671Z,101620.53
2022-10-04T07:47:20.189Z,101630.38
2022-10-04T07:49:50.930Z,101625.50
2022-10-04T07:52:48.161Z,101625.63
2022-10-04T07:55:21.890Z,101624.94
2022-10-04T07:58:08.040Z,101627.31
2022-10-04T08:00:44.326Z,101632.00
2022-10-04T08:03:30.020Z,101626.34
2022-10-04T08:06:06.398Z,101617.78
2022-10-04T08:08:51.857Z,101620.72
2022-10-04T08:11:37.747Z,101612.56
2022-10-04T08:14:42.511Z,101612.63
2022-10-04T08:17:16.015Z,101616.88
2022-10-04T08:20:23.983Z,101618.09
2022-10-04T08:23:16.495Z,101621.38
2022-10-04T08:25:49.927Z,101611.81
2022-10-04T08:29:02.795Z,101607.47
2022-10-04T08:32:05.493Z,101617.69
2022-10-04T08:34:36.353Z,101616.09
2022-10-04T08:37:28.555Z,101616.19
2022-10-04T08:40:13.395Z,101634.75
2022-10-04T08:43:02.390Z,101636.13
2022-10-04T08:45:37.730Z,101636.84
2022-10-04T08:48:46.263Z,101644.13
2022-10-04T08:51:35.267Z,101642.31
2022-10-04T08:54:38.034Z,101646.84
2022-10-04T08:57:15.619Z,101646.22
2022-10-04T09:00:08.841Z,101645.84
2022-10-04T09:02:54.409Z,101644.19
2022-10-04T09:05:45.517Z,101641.94
2022-10-04T09:08:50.569Z,101645.06
2022-10-04T09:11:42.005Z,101647.75
2022-10-04T09:14:27.791Z,101642.53
2022-10-04T09:17:21.830Z,101642.75
2022-10-04T09:20:19.568Z,101648.31
2022-10-04T09:22:48.336Z,101644.66
2022-10-04T09:25:23.363Z,101647.63
2022-10-04T09:27:59.516Z,101649.97
2022-10-04T09:30:44.123Z,101652.31
2022-10-04T09:33:26.276Z,101650.53
2022-10-04T09:36:31.791Z,101639.34
2022-10-04T09:39:29.957Z,101641.81
2022-10-04T09:42:08.271Z,101627.94
2022-10-04T09:44:56.767Z,101619.25
2022-10-04T09:47:45.807Z,101610.56
2022-10-04T09:50:35.550Z,101612.34
2022-10-04T09:53:06.473Z,101603.97
2022-10-04T09:55:46.698Z,101616.78
2022-10-04T09:58:29.965Z,101616.84
2022-10-04T10:01:17.101Z,101627.81
2022-10-04T10:04:08.474Z,101626.81
2022-10-04T10:06:46.661Z,101614.28
2022-10-04T10:09:43.078Z,101615.25
2022-10-04T10:12:35.254Z,101617.66
2022-10-04T10:15:17.979Z,101616.00
2022-10-04T10:18:16.122Z,101608.56
2022-10-04T10:21:07.142Z,101598.16
2022-10-04T10:23:46.128Z,101595.88
2022-10-04T10:26:37.439Z,101583.81
2022-10-04T10:29:42.338Z,101585.56
2022-10-04T10:32:34.019Z,101584.97
2022-10-04T10:35:13.654Z,101577.97
2022-10-04T10:38:20.545Z,101569.16
2022-10-04T10:40:58.388Z,101566.38
2022-10-04T10:43:50.499Z,101573.69
2022-10-04T10:46:39.690Z,101573.84
2022-10-04T10:49:23.282Z,101579.59
2022-10-04T10:52:10.785Z,101574.69
2022-10-04T10:55:09.095Z,101570.25
2022-10-04T10:57:48.794Z,101561.13
2022-10-04T11:00:30.538Z,101568.97
2022-10-04T11:03:15.193Z,101569.47
2022-10-04T11:06:08.989Z,101568.78
2022-10-04T11:09:25.240Z,101567.16
2022-10-04T11:12:05.856Z,101573.19
2022-10-04T11:15:15.130Z,101566.59
2022-10-04T11:18:09.253Z,101578.16
2022-10-04T11:21:14.147Z,101577.25
2022-10-04T11:24:14.155Z,101570.84
2022-10-04T11:27:05.819Z,101572.13
2022-10-04T11:30:02.554Z,101568.88
2022-10-04T11:33:09.316Z,101575.38
2022-10-04T11:35:46.115Z,101581.47
2022-10-04T11:38:31.625Z,101584.59
2022-10-04T11:41:11.048Z,101580.78
2022-10-04T11:44:15.939Z,101578.50
2022-10-04T11:47:08.674Z,101580.19
2022-10-04T11:49:57.907Z,101572.00
2022-10-04T11:52:43.851Z,101580.25
2022-10-04T11:55:38.367Z,101579.13
2022-10-04T11:58:13.356Z,101572.88
2022-10-04T12:00:46.508Z,101567.16
2022-10-04T12:03:28.909Z,101560.44
2022-10-04T12:06:22.269Z,101558.97
2022-10-04T12:09:05.340Z,101560.19
2022-10-04T12:12:05.947Z,101559.16
2022-10-04T12:14:38.803Z,101565.25
2022-10-04T12:17:25.423Z,101562.41
2022-10-04T12:20:40.657Z,101566.03
2022-10-04T12:23:11.175Z,101571.38
2022-10-04T12:26:08.323Z,101572.22
2022-10-04T12:28:54.271Z,101566.78
2022-10-04T12:31:35.322Z,101560.75
2022-10-04T12:34:16.723Z,101550.03
2022-10-04T12:37:11.426Z,101555.28
2022-10-04T12:39:51.071Z,101547.88
2022-10-04T12:42:32.672Z,101546.47
2022-10-04T12:45:30.228Z,101540.59
2022-10-04T12:48:09.590Z,101526.56
2022-10-04T12:50:45.657Z,101522.78
2022-10-04T12:53:32.124Z,101528.63
2022-10-04T12:55:59.365Z,101527.75
2022-10-04T12:58:49.721Z,101523.13
2022-10-04T13:01:42.196Z,101516.94
2022-10-04T13:04:31.676Z,101515.75
2022-10-04T13:07:09.098Z,101508.47
2022-10-04T13:10:05.395Z,101512.44
2022-10-04T13:13:05.544Z,101506.69
2022-10-04T13:18:46.336Z,101497.72
2022-10-04T13:21:25.054Z,101493.97
2022-10-04T13:24:31.604Z,101504.53
2022-10-04T13:27:07.682Z,101493.22
2022-10-04T13:29:50.501Z,101493.28
2022-10-04T13:32:27.747Z,101490.16
2022-10-04T13:35:04.581Z,101484.25
2022-10-04T13:37:44.989Z,101474.31
2022-10-04T13:40:24.256Z,101482.31
2022-10-04T13:42:54.596Z,101474.09
2022-10-04T13:45:40.111Z,101467.38
2022-10-04T13:48:26.017Z,101461.13
2022-10-04T13:51:20.074Z,101466.06
2022-10-04T13:54:24.565Z,101465.06
2022-10-04T13:57:24.213Z,101454.78
2022-10-04T14:00:01.995Z,101469.00
2022-10-04T14:02:55.217Z,101466.75
2022-10-04T14:05:40.452Z,101460.25
2022-10-04T14:08:26.506Z,101460.16
2022-10-04T14:10:59.607Z,101458.50
2022-10-04T14:13:48.857Z,101463.75
2022-10-04T14:16:56.234Z,101448.22
2022-10-04T14:19:58.272Z,101452.03
2022-10-04T14:22:36.432Z,101454.44
2022-10-04T14:25:09.518Z,101450.38
2022-10-04T14:28:14.641Z,101444.72
2022-10-04T14:31:17.883Z,101445.00
2022-10-04T14:34:03.735Z,101449.59
2022-10-04T14:36:45.441Z,101455.59
2022-10-04T14:39:45.082Z,101449.00
2022-10-04T14:42:18.286Z,101431.72
2022-10-04T14:45:13.828Z,101441.50
2022-10-04T14:48:00.044Z,101444.09
2022-10-04T14:50:33.500Z,101442.81
2022-10-04T14:53:04.869Z,101443.59
2022-10-04T14:55:50.984Z,101451.03
2022-10-04T14:58:52.962Z,101434.28
2022-10-04T15:01:28.471Z,101432.19
2022-10-04T15:04:11.947Z,101436.06
2022-10-04T15:06:54.685Z,101436.25
2022-10-04T15:09:56.118Z,101436.22
2022-10-04T15:12:40.790Z,101424.16
2022-10-04T15:15:14.308Z,101437.72
2022-10-04T15:17:47.416Z,101427.94
2022-10-04T15:20:28.837Z,101426.34
2022-10-04T15:23:08.851Z,101426.50
2022-10-04T15:25:36.084Z,101432.88
2022-10-04T15:28:07.107Z,101424.84
2022-10-04T15:31:12.615Z,101415.31
2022-10-04T15:34:03.249Z,101410.88
2022-10-04T15:36:40.037Z,101406.38
2022-10-04T15:39:44.491Z,101403.84
2022-10-04T15:42:16.461Z,101405.91
2022-10-04T15:45:16.875Z,101392.56
2022-10-04T15:48:21.692Z,101393.41
2022-10-04T15:51:13.904Z,101394.00
2022-10-04T15:54:03.123Z,101402.03
2022-10-04T15:56:51.606Z,101388.59
2022-10-04T15:59:42.539Z,101399.75
2022-10-04T16:02:48.970Z,101392.75
2022-10-04T16:05:45.589Z,101403.38
2022-10-04T16:08:27.549Z,101397.53
2022-10-04T16:11:13.043Z,101404.03
2022-10-04T16:14:15.715Z,101404.72
2022-10-04T16:17:02.157Z,101411.59
2022-10-04T16:19:52.459Z,101416.44
2022-10-04T16:22:29.967Z,101417.09
2022-10-04T16:25:26.813Z,101410.22
2022-10-04T16:27:56.800Z,101417.19
2022-10-04T16:30:32.755Z,101416.25
2022-10-04T16:33:12.809Z,101418.59
2022-10-04T16:35:44.334Z,101410.34
2022-10-04T16:38:24.803Z,101409.56
2022-10-04T16:40:52.001Z,101403.13
2022-10-04T16:43:19.165Z,101410.56
2022-10-04T16:45:52.461Z,101415.72
2022-10-04T16:48:50.967Z,101404.97
2022-10-04T16:51:18.146Z,101408.66
2022-10-04T16:53:54.451Z,101420.88
2022-10-04T16:56:24.114Z,101422.56
2022-10-04T16:59:10.245Z,101426.31
2022-10-04T17:01:43.966Z,101429.56
2022-10-04T17:04:36.843Z,101433.41
2022-10-04T17:07:12.155Z,101431.28
2022-10-04T17:09:58.046Z,101442.94
2022-10-04T17:12:59.225Z,101447.41
2022-10-04T17:15:47.978Z,101456.13
2022-10-04T17:18:26.284Z,101458.03
2022-10-04T17:21:04.099Z,101464.28
2022-10-04T17:24:08.896Z,101470.84
2022-10-04T17:26:52.355Z,101472.00
2022-10-04T17:29:25.560Z,101473.63
2022-10-04T17:32:17.475Z,101465.72
2022-10-04T17:35:16.123Z,101477.34
2022-10-04T17:38:07.625Z,101471.44
2022-10-04T17:40:55.887Z,101472.72
2022-10-04T17:43:27.744Z,101475.25
2022-10-04T17:46:17.602Z,101465.03
2022-10-04T17:49:35.915Z,101459.34
2022-10-04T17:52:23.213Z,101464.94
2022-10-04T17:55:11.676Z,101465.19
2022-10-04T17:57:48.162Z,101469.47
2022-10-04T18:00:18.283Z,101473.66
2022-10-04T18:02:49.490Z,101466.31
2022-10-04T18:05:41.282Z,101462.97
2022-10-04T18:08:20.236Z,101462.03
2022-10-04T18:11:03.678Z,101457.72
2022-10-04T18:13:44.828Z,101454.03
2022-10-04T18:16:26.714Z,101453.44
2022-10-04T18:18:54.172Z,101448.44
2022-10-04T18:21:30.413Z,101456.94
2022-10-04T18:24:16.337Z,101452.38
2022-10-04T18:26:59.861Z,101448.09
2022-10-04T18:29:45.102Z,101452.13
2022-10-04T18:32:30.720Z,101448.56
2022-10-04T18:35:00.026Z,101447.03
2022-10-04T18:37:37.479Z,101444.94
2022-10-04T18:40:42.087Z,101442.63
2022-10-04T18:43:30.429Z,101442.84
2022-10-04T18:46:06.839Z,101453.16
2022-10-04T18:48:40.710Z,101442.47
2022-10-04T18:51:28.417Z,101450.13
2022-10-04T18:54:26.254Z,101453.75
2022-10-04T18:57:24.363Z,101452.56
2022-10-04T19:00:29.150Z,101447.94
2022-10-04T19:03:09.309Z,101450.72
2022-10-04T19:05:52.393Z,101454.75
2022-10-04T19:08:21.771Z,101455.13
2022-10-04T19:10:51.636Z,101468.22
2022-10-04T19:13:28.715Z,101465.19
2022-10-04T19:16:36.417Z,101474.16
2022-10-04T19:19:34.669Z,101469.06
2022-10-04T19:22:11.198Z,101476.94
2022-10-04T19:25:01.292Z,101480.91
2022-10-04T19:27:36.592Z,101478.00
2022-10-04T19:30:12.760Z,101483.31
2022-10-04T19:32:47.209Z,101487.59
2022-10-04T19:35:20.742Z,101486.47
2022-10-04T19:38:20.095Z,101484.50
2022-10-04T19:40:51.461Z,101480.91
2022-10-04T19:43:42.937Z,101486.25
2022-10-04T19:46:22.282Z,101495.78
2022-10-04T19:48:51.253Z,101497.06
2022-10-04T19:51:43.315Z,101488.44
2022-10-04T19:54:16.196Z,101494.16
2022-10-04T19:56:49.034Z,101495.31
2022-10-04T19:59:26.718Z,101494.63
2022-10-04T20:01:54.033Z,101490.44
2022-10-04T20:04:42.180Z,101488.69
2022-10-04T20:07:27.445Z,101495.44
2022-10-04T20:10:16.424Z,101497.28
2022-10-04T20:13:13.592Z,101499.38
2022-10-04T20:15:55.398Z,101503.66
2022-10-04T20:18:41.919Z,101498.31
2022-10-04T20:21:10.506Z,101498.63
2022-10-04T20:23:40.702Z,101498.53
2022-10-04T20:26:08.420Z,101497.38
2022-10-04T20:28:41.989Z,101499.03
2022-10-04T20:31:11.654Z,101497.09
2022-10-04T20:33:49.899Z,101489.19
2022-10-04T20:36:20.565Z,101494.16
2022-10-04T20:39:01.533Z,101495.69
2022-10-04T20:41:28.789Z,101488.75
2022-10-04T20:43:58.032Z,101477.00
2022-10-04T20:46:26.451Z,101476.09
2022-10-04T20:48:55.247Z,101480.69
2022-10-04T20:51:24.213Z,101484.06
2022-10-04T20:53:51.761Z,101489.63
2022-10-04T20:56:33.285Z,101475.94
2022-10-04T20:59:01.674Z,101484.97
2022-10-04T21:01:37.445Z,101483.69
2022-10-04T21:04:18.085Z,101482.41
2022-10-04T21:06:51.474Z,101489.38
2022-10-04T21:09:18.914Z,101486.94
2022-10-04T21:11:48.258Z,101487.00
2022-10-04T21:14:41.503Z,101482.25
2022-10-04T21:17:30.564Z,101491.69
2022-10-04T21:19:58.446Z,101480.53
2022-10-04T21:22:25.560Z,101470.19
2022-10-04T21:24:58.443Z,101467.59
2022-10-04T21:27:37.230Z,101477.72
2022-10-04T21:30:14.353Z,101466.53
2022-10-04T21:32:41.809Z,101472.56
2022-10-04T21:35:10.039Z,101471.88
2022-10-04T21:37:37.397Z,101473.47
2022-10-04T21:40:06.159Z,101475.91
2022-10-04T21:42:33.599Z,101478.16
2022-10-04T21:45:00.926Z,101480.47
2022-10-04T21:47:28.209Z,101477.69
2022-10-04T21:49:55.831Z,101481.59
2022-10-04T21:52:23.282Z,101472.63
2022-10-04T21:54:50.677Z,101481.84
2022-10-04T21:57:17.819Z,101484.03
2022-10-04T21:59:45.077Z,101489.47
2022-10-04T22:02:12.335Z,101487.19
2022-10-04T22:04:40.275Z,101487.53
2022-10-04T22:07:07.566Z,101485.81
2022-10-04T22:09:36.338Z,101485.69
2022-10-04T22:12:03.613Z,101495.00
2022-10-04T22:14:30.790Z,101493.22
2022-10-04T22:16:58.049Z,101488.69
2022-10-04T22:19:25.293Z,101484.25
2022-10-04T22:21:52.514Z,101484.00
2022-10-04T22:24:20.781Z,101492.69
2022-10-04T22:26:48.943Z,101489.22
2022-10-04T22:29:17.577Z,101484.47
2022-10-04T22:31:47.061Z,101490.03
2022-10-04T22:34:20.359Z,101488.22
2022-10-04T22:36:49.213Z,101487.81
2022-10-04T22:39:20.481Z,101484.69
2022-10-04T22:41:52.555Z,101482.59
2022-10-04T22:44:22.083Z,101482.94
2022-10-04T22:46:52.318Z,101477.16
2022-10-04T22:49:24.064Z,101478.84
2022-10-04T22:51:52.755Z,101472.16
2022-10-04T22:54:22.945Z,101470.19
2022-10-04T22:56:50.847Z,101464.38
2022-10-04T22:59:22.547Z,101466.66
2022-10-04T23:01:49.901Z,101467.16
2022-10-04T23:04:22.590Z,101458.53
2022-10-04T23:06:50.729Z,101461.31
2022-10-04T23:09:18.580Z,101457.25
2022-10-04T23:11:46.074Z,101448.06
2022-10-04T23:14:13.219Z,101450.50
2022-10-04T23:16:40.750Z,101447.59
2022-10-04T23:19:18.657Z,101439.94
2022-10-04T23:21:49.846Z,101440.50
2022-10-04T23:24:19.879Z,101442.66
2022-10-04T23:26:49.515Z,101430.69
2022-10-04T23:29:16.751Z,101427.09
2022-10-04T23:31:46.240Z,101432.19
2022-10-04T23:34:18.149Z,101436.94
2022-10-04T23:36:47.100Z,101445.03
2022-10-04T23:39:22.892Z,101445.97
2022-10-04T23:41:50.224Z,101453.03
2022-10-04T23:44:17.561Z,101445.38
2022-10-04T23:46:45.254Z,101442.72
2022-10-04T23:49:15.682Z,101429.31
2022-10-04T23:51:44.123Z,101431.97
2022-10-04T23:54:17.233Z,101431.25
2022-10-04T23:56:46.053Z,101435.31
2022-10-04T23:59:17.968Z,101426.41
